Terminal Aerodrome Forecast
Issued by NWS

Home | Current Version | Previous Version | Text Only | Print | Product List | Glossary Off
Versions: 1 2 3 4 5 6 7 8 9 10 11 12 13 14 15 16

850
FTUS43 KTOP 250652 AAA
TAFFOE
TAF AMD
KFOE 250652Z 2507/2606 32011KT P6SM VCSH SCT025 OVC090
     FM250900 34006KT 5SM -RA OVC013
     FM251100 33005KT 5SM -RA OVC006
     FM251900 36009KT 2SM -RA OVC003
     FM260100 35006KT P6SM SCT020=

USA.gov is the U.S. government's official web portal to all federal, state and local government web resources and services.